Time;durP1;ratioP1;P1;durP2;ratioP2;P2;SDS_P1;SDS_P2;PMS_P1;PMS_P2;Temp;Humidity;BMP_temperature;BMP_pressure;BME280_temperature;BME280_humidity;BME280_pressure;Samples;Min_cycle;Max_cycle;Signal;HPM_P1;HPM_P2
2022/06/05 00:02:12;;;;;;;;;4.50;4.25;;;;;19.38;86.48;100831.75;5090322;27;45410;-81
2022/06/05 00:04:41;;;;;;;;;6.00;5.00;;;;;19.55;86.89;100867.28;5090570;27;45759;-81
2022/06/05 00:07:20;;;;;;;;;4.00;3.50;;;;;19.54;86.90;100861.94;5090754;27;46060;-80
2022/06/05 00:10:23;;;;;;;;;2.75;2.50;;;;;19.50;86.48;100853.06;5097376;27;45416;-81
2022/06/05 00:13:14;;;;;;;;;3.25;3.25;;;;;19.38;85.80;100837.06;5066481;27;45454;-80
2022/06/05 00:15:39;;;;;;;;;5.25;4.00;;;;;19.35;87.02;100834.41;5092381;27;45558;-81
2022/06/05 00:18:05;;;;;;;;;4.00;4.00;;;;;19.45;86.47;100853.94;5110935;27;45955;-81
2022/06/05 00:20:31;;;;;;;;;5.00;5.00;;;;;19.22;86.66;100817.53;5111062;27;45874;-80
2022/06/05 00:22:58;;;;;;;;;6.25;4.25;;;;;19.40;86.77;100864.59;5111776;27;45560;-80
2022/06/05 00:25:31;;;;;;;;;4.50;4.00;;;;;19.23;86.79;100832.63;5110323;27;45638;-80
2022/06/05 00:28:08;;;;;;;;;5.00;4.75;;;;;19.42;86.32;100862.84;5111273;27;46483;-81
2022/06/05 00:30:50;;;;;;;;;3.50;2.50;;;;;19.00;86.72;100797.09;5110736;27;45389;-80
2022/06/05 00:33:35;;;;;;;;;4.00;4.00;;;;;19.37;86.51;100866.41;5110326;27;45450;-80
2022/06/05 00:36:24;;;;;;;;;4.75;3.25;;;;;19.34;86.81;100868.16;5111290;27;45492;-78
2022/06/05 00:39:19;;;;;;;;;4.75;4.50;;;;;19.16;86.47;100832.59;5111161;27;46404;-80
2022/06/05 00:41:51;;;;;;;;;5.50;5.00;;;;;19.16;86.98;100816.63;5111232;27;45969;-80
2022/06/05 00:44:23;;;;;;;;;5.25;5.25;;;;;19.28;86.60;100827.31;5110760;27;45540;-80
2022/06/05 00:46:50;;;;;;;;;4.00;4.00;;;;;19.15;86.91;100805.09;5110434;27;45473;-80
2022/06/05 00:49:17;;;;;;;;;7.75;6.75;;;;;19.20;86.49;100808.63;5110518;27;46457;-79
2022/06/05 00:51:43;;;;;;;;;6.25;5.75;;;;;19.13;86.40;100798.88;5110890;27;45425;-80
2022/06/05 00:54:09;;;;;;;;;7.50;5.75;;;;;19.19;86.92;100801.53;5109356;27;45467;-81
2022/06/05 00:56:36;;;;;;;;;5.50;5.00;;;;;19.15;86.74;100801.53;5110850;27;45508;-79
2022/06/05 00:59:02;;;;;;;;;6.00;5.00;;;;;19.29;86.85;100827.28;5110400;27;46256;-80
2022/06/05 01:01:27;;;;;;;;;8.75;6.75;;;;;19.24;86.97;100822.84;5109885;27;45458;-81
2022/06/05 01:03:54;;;;;;;;;7.00;7.00;;;;;19.29;86.98;100831.75;5111074;27;45965;-78
2022/06/05 01:06:19;;;;;;;;;8.00;5.50;;;;;19.02;86.66;100790.88;5110293;27;45476;-78
2022/06/05 01:08:44;;;;;;;;;6.75;5.75;;;;;18.99;86.43;100785.53;5110094;27;46737;-79
2022/06/05 01:11:37;;;;;;;;;8.00;8.00;;;;;19.01;86.46;100791.78;5073162;27;45498;-81
2022/06/05 01:14:33;;;;;;;;;4.50;4.00;;;;;19.10;86.77;100798.88;5090147;27;45422;-80
2022/06/05 01:17:16;;;;;;;;;5.75;5.00;;;;;19.04;86.69;100777.56;5070902;27;45568;-81
2022/06/05 01:19:55;;;;;;;;;6.75;6.00;;;;;18.98;86.37;100759.81;5090258;27;45771;-80
2022/06/05 01:22:39;;;;;;;;;8.00;6.75;;;;;19.16;86.80;100787.31;5089957;27;46447;-81
2022/06/05 01:25:10;;;;;;;;;5.00;5.00;;;;;19.16;87.01;100776.66;5089289;27;45436;-81
2022/06/05 01:27:42;;;;;;;;;7.75;7.75;;;;;19.08;86.40;100758.91;5089908;27;45386;-80
2022/06/05 01:30:18;;;;;;;;;7.00;4.50;;;;;19.13;86.49;100766.03;5089554;27;46382;-81
2022/06/05 01:33:04;;;;;;;;;7.25;5.00;;;;;18.87;86.43;100718.09;5088807;27;45499;-81
2022/06/05 01:35:42;;;;;;;;;7.50;5.75;;;;;19.03;86.27;100742.03;5089582;27;45374;-81
2022/06/05 01:38:13;;;;;;;;;5.00;5.00;;;;;19.07;86.54;100735.81;5071192;27;45404;-81
2022/06/05 01:40:45;;;;;;;;;5.25;4.75;;;;;19.02;86.34;100724.28;5089616;27;45496;-80
2022/06/05 01:43:19;;;;;;;;;3.25;3.00;;;;;18.98;86.34;100716.28;5089593;27;45555;-81
2022/06/05 01:45:51;;;;;;;;;6.75;6.00;;;;;18.98;86.37;100709.19;5089105;27;45867;-81
2022/06/05 01:48:23;;;;;;;;;7.00;6.75;;;;;19.10;86.03;100729.59;5089355;27;45529;-81
2022/06/05 01:50:54;;;;;;;;;6.25;5.75;;;;;19.08;86.17;100729.59;5089424;27;45378;-81
2022/06/05 01:53:35;;;;;;;;;6.00;5.25;;;;;18.79;86.31;100676.34;5088962;27;45603;-81
2022/06/05 01:56:32;;;;;;;;;7.00;6.00;;;;;19.04;86.11;100721.63;5070993;27;45518;-80
2022/06/05 01:59:12;;;;;;;;;4.50;4.25;;;;;19.00;86.23;100707.41;5089764;27;45439;-81
2022/06/05 02:01:42;;;;;;;;;5.75;5.00;;;;;18.95;85.92;100706.50;5088670;27;45458;-80
2022/06/05 02:04:20;;;;;;;;;5.75;4.75;;;;;18.80;86.09;100675.44;5089135;27;45377;-80
2022/06/05 02:06:53;;;;;;;;;5.75;5.00;;;;;18.89;86.27;100694.97;5093310;27;45542;-80
2022/06/05 02:09:28;;;;;;;;;4.75;4.75;;;;;18.64;86.08;100656.78;5095055;27;45613;-80
2022/06/05 02:11:54;;;;;;;;;5.75;5.00;;;;;18.70;85.96;100663.03;5113491;27;46196;-79
2022/06/05 02:14:20;;;;;;;;;6.00;5.50;;;;;18.73;86.17;100678.13;5112993;27;45600;-81
2022/06/05 02:16:46;;;;;;;;;4.00;4.00;;;;;18.77;86.55;100686.13;5112924;27;45623;-80
2022/06/05 02:19:18;;;;;;;;;5.00;4.75;;;;;18.73;86.60;100679.00;5113107;27;45611;-81
2022/06/05 02:21:44;;;;;;;;;5.75;5.25;;;;;18.62;86.49;100648.81;5113798;27;46687;-80
2022/06/05 02:24:11;;;;;;;;;5.25;5.00;;;;;18.78;86.28;100684.34;5112120;27;45713;-80
2022/06/05 02:26:37;;;;;;;;;6.25;5.00;;;;;18.45;86.48;100632.81;5113347;27;45653;-81
2022/06/05 02:29:11;;;;;;;;;5.75;5.25;;;;;18.80;86.58;100690.53;5112974;27;45620;-80
2022/06/05 02:31:51;;;;;;;;;7.50;7.00;;;;;18.71;86.35;100677.22;5112324;27;45532;-81
2022/06/05 02:34:55;;;;;;;;;6.75;6.50;;;;;18.77;86.57;100674.59;5112543;27;45369;-81
2022/06/05 02:38:01;;;;;;;;;5.25;4.25;;;;;18.73;86.17;100668.38;5008250;28;45776;-79
2022/06/05 02:40:26;;;;;;;;;6.00;6.00;;;;;18.70;86.32;100668.34;5098576;27;45528;-81
2022/06/05 02:43:13;;;;;;;;;5.00;5.00;;;;;18.63;86.29;100657.69;5112773;27;45366;-81
2022/06/05 02:46:03;;;;;;;;;6.50;6.25;;;;;18.68;86.53;100671.88;5111776;27;46197;-80
2022/06/05 02:48:41;;;;;;;;;4.25;3.50;;;;;18.44;86.41;100631.06;5093676;27;45750;-80
2022/06/05 02:51:13;;;;;;;;;4.75;4.00;;;;;18.68;86.70;100664.81;5112937;27;45772;-81
2022/06/05 02:53:46;;;;;;;;;3.25;3.25;;;;;18.70;86.67;100657.69;5112142;27;46469;-79
2022/06/05 02:56:11;;;;;;;;;3.50;2.75;;;;;18.61;86.96;100646.13;5112477;27;46085;-79
2022/06/05 02:58:37;;;;;;;;;3.00;3.00;;;;;18.65;86.42;100648.78;5112782;27;45440;-80
2022/06/05 03:03:46;;;;;;;;;4.00;3.00;;;;;18.59;86.11;100626.63;5112508;27;45493;-81
2022/06/05 03:06:11;;;;;;;;;4.25;4.00;;;;;18.60;86.15;100625.72;5111754;27;45734;-79
2022/06/05 03:08:37;;;;;;;;;5.00;4.75;;;;;18.63;85.68;100625.75;5111985;27;45393;-80
2022/06/05 03:11:02;;;;;;;;;4.50;3.25;;;;;18.42;86.11;100592.91;5094756;27;45474;-79
2022/06/05 03:13:27;;;;;;;;;7.50;6.75;;;;;18.64;86.52;100640.81;5091630;27;45750;-81
2022/06/05 03:15:53;;;;;;;;;4.00;3.75;;;;;18.72;85.93;100665.72;5090178;27;45343;-81
2022/06/05 03:18:19;;;;;;;;;4.00;3.00;;;;;18.65;86.03;100662.09;5091174;27;45503;-81
2022/06/05 03:20:44;;;;;;;;;3.00;3.00;;;;;18.51;85.84;100642.56;5091696;27;45413;-81
2022/06/05 03:23:10;;;;;;;;;4.00;4.00;;;;;18.64;85.53;100668.31;5090873;27;46380;-81
2022/06/05 03:25:38;;;;;;;;;3.00;2.25;;;;;18.68;85.46;100687.84;5091123;27;45521;-78
2022/06/05 03:28:04;;;;;;;;;3.75;2.00;;;;;18.56;85.67;100660.31;5091594;27;45418;-79
2022/06/05 03:30:30;;;;;;;;;4.00;4.00;;;;;18.52;85.41;100650.59;5090598;27;45490;-81
2022/06/05 03:32:55;;;;;;;;;3.00;2.25;;;;;18.46;85.54;100657.66;5091516;27;46401;-81
2022/06/05 03:35:21;;;;;;;;;5.25;4.50;;;;;18.39;85.05;100640.81;5072635;27;45415;-79
2022/06/05 03:37:46;;;;;;;;;3.00;2.75;;;;;18.49;85.33;100663.00;5091574;27;45520;-81
2022/06/05 03:40:15;;;;;;;;;4.25;4.25;;;;;18.36;85.01;100635.47;5091159;27;45701;-81
2022/06/05 03:42:42;;;;;;;;;2.00;2.00;;;;;18.36;84.99;100632.81;5091263;27;46279;-81
2022/06/05 03:45:16;;;;;;;;;2.00;2.00;;;;;18.60;85.11;100686.94;5090800;27;46152;-79
2022/06/05 03:47:42;;;;;;;;;5.50;4.75;;;;;18.53;85.16;100680.75;5090677;27;45300;-81
2022/06/05 03:50:08;;;;;;;;;2.75;2.25;;;;;18.54;85.24;100687.84;5091194;27;45580;-78
2022/06/05 03:52:33;;;;;;;;;5.50;5.50;;;;;18.56;85.27;100691.38;5090717;27;45590;-81
2022/06/05 03:54:59;;;;;;;;;3.75;2.75;;;;;18.33;85.22;100659.44;5091196;27;45651;-80
2022/06/05 03:57:24;;;;;;;;;4.50;4.00;;;;;18.49;84.85;100692.28;5090817;27;45536;-78
2022/06/05 03:59:49;;;;;;;;;4.75;3.75;;;;;18.26;85.08;100654.97;5090952;27;45503;-79
2022/06/05 04:02:15;;;;;;;;;3.50;3.25;;;;;18.22;85.32;100647.84;5090563;27;46241;-78
2022/06/05 04:04:40;;;;;;;;;5.75;4.25;;;;;18.44;85.47;100691.38;5090880;27;45399;-76
2022/06/05 04:07:06;;;;;;;;;3.25;2.75;;;;;18.40;85.18;100689.59;5090527;27;45783;-80
2022/06/05 04:09:31;;;;;;;;;4.50;4.50;;;;;18.28;84.98;100678.03;5095528;27;45383;-79
2022/06/05 04:11:56;;;;;;;;;3.67;3.00;;;;;18.24;85.49;100670.94;5111820;27;49545;-80
2022/06/05 04:14:22;;;;;;;;;4.00;3.00;;;;;18.27;85.20;100676.28;5111013;27;45797;-77
2022/06/05 04:16:47;;;;;;;;;4.00;3.00;;;;;18.45;84.92;100709.13;5111137;27;45518;-77
2022/06/05 04:19:13;;;;;;;;;4.00;3.00;;;;;18.35;85.28;100697.56;5110991;27;45637;-78
2022/06/05 04:21:41;;;;;;;;;5.75;3.00;;;;;18.29;84.76;100686.91;5092063;27;47334;-80
2022/06/05 04:24:06;;;;;;;;;4.00;3.50;;;;;18.52;85.00;100727.78;5110809;27;46021;-79
2022/06/05 04:26:35;;;;;;;;;6.00;5.00;;;;;18.39;85.11;100711.78;5111063;27;45663;-80
2022/06/05 04:29:00;;;;;;;;;3.75;3.50;;;;;18.61;85.21;100749.94;5110732;27;45481;-80
2022/06/05 04:31:25;;;;;;;;;3.50;3.50;;;;;18.62;85.50;100747.31;5091535;27;47192;-79
2022/06/05 04:33:54;;;;;;;;;3.00;3.00;;;;;18.64;85.07;100756.19;5111435;27;45448;-80
2022/06/05 04:36:20;;;;;;;;;3.75;3.75;;;;;18.62;85.38;100751.72;5110446;27;45778;-79
2022/06/05 04:38:47;;;;;;;;;5.25;5.25;;;;;18.56;85.22;100742.84;5111319;27;45773;-78
2022/06/05 04:41:13;;;;;;;;;5.50;3.50;;;;;18.56;84.98;100731.31;5092029;27;47409;-80
2022/06/05 04:43:39;;;;;;;;;5.00;5.00;;;;;18.75;85.13;100764.22;5110689;27;46100;-80
2022/06/05 04:46:05;;;;;;;;;3.00;2.00;;;;;18.62;85.31;100738.41;5109742;27;45405;-80
2022/06/05 04:48:31;;;;;;;;;3.25;2.75;;;;;18.62;84.83;100734.00;5110139;27;45549;-79
2022/06/05 04:50:57;;;;;;;;;3.00;3.00;;;;;18.68;84.83;100743.75;5110174;27;46349;-80
2022/06/05 04:53:22;;;;;;;;;4.25;2.00;;;;;18.70;84.63;100747.34;5110468;27;45475;-78
2022/06/05 04:55:47;;;;;;;;;4.75;3.25;;;;;18.95;84.35;100782.88;5111659;27;45628;-81
2022/06/05 04:58:13;;;;;;;;;3.75;3.00;;;;;18.81;84.43;100749.13;5110200;27;45710;-80
2022/06/05 05:00:39;;;;;;;;;3.00;3.00;;;;;18.95;84.69;100767.78;5091448;27;48011;-80
2022/06/05 05:03:05;;;;;;;;;1.75;1.75;;;;;19.07;84.71;100781.13;5110325;27;45948;-79
2022/06/05 05:05:30;;;;;;;;;4.50;4.00;;;;;18.82;84.52;100731.41;5109996;27;45390;-80
2022/06/05 05:07:56;;;;;;;;;4.75;3.75;;;;;18.83;84.48;100718.97;5111021;27;45388;-80
2022/06/05 05:10:22;;;;;;;;;2.25;2.25;;;;;19.19;84.28;100771.34;5098209;27;45600;-79
2022/06/05 05:12:47;;;;;;;;;2.00;2.00;;;;;19.17;84.79;100765.13;5089959;27;45694;-80
2022/06/05 05:15:13;;;;;;;;;3.00;2.00;;;;;19.22;84.36;100761.56;5089339;27;45406;-80
2022/06/05 05:17:39;;;;;;;;;1.75;1.75;;;;;19.31;84.38;100766.03;5089847;27;45528;-80
2022/06/05 05:20:05;;;;;;;;;3.50;3.00;;;;;19.10;84.30;100718.06;5089670;27;45476;-79
2022/06/05 05:22:37;;;;;;;;;5.00;4.75;;;;;19.34;84.48;100758.00;5070640;27;45986;-80
2022/06/05 05:25:07;;;;;;;;;2.75;2.50;;;;;19.40;84.84;100773.97;5090031;27;45554;-81
2022/06/05 05:27:34;;;;;;;;;3.00;2.50;;;;;19.30;84.70;100751.78;5089669;27;45856;-80
2022/06/05 05:29:59;;;;;;;;;4.00;4.00;;;;;19.48;84.56;100787.31;5089802;27;45961;-79
2022/06/05 05:32:25;;;;;;;;;3.00;3.00;;;;;19.40;84.86;100775.75;5088928;27;45560;-80
2022/06/05 05:34:51;;;;;;;;;4.50;3.75;;;;;19.47;85.06;100783.75;5089948;27;45183;-80
2022/06/05 05:37:18;;;;;;;;;2.25;2.25;;;;;19.34;84.88;100764.22;5089185;27;45400;-79
2022/06/05 05:42:30;;;;;;;;;3.50;3.00;;;;;19.52;83.56;100784.66;5092557;27;46014;-80
2022/06/05 05:44:56;;;;;;;;;6.75;5.75;;;;;19.69;83.90;100800.63;5093792;27;45591;-79
2022/06/05 05:47:25;;;;;;;;;4.00;4.00;;;;;19.72;83.99;100802.44;5092343;27;45609;-79
2022/06/05 05:49:58;;;;;;;;;4.50;3.75;;;;;19.51;84.40;100750.00;5093011;27;47097;-81
2022/06/05 05:52:25;;;;;;;;;1.00;0.00;;;;;19.76;84.11;100791.75;5093058;27;45964;-80
2022/06/05 05:54:50;;;;;;;;;2.50;1.75;;;;;19.81;84.11;100797.97;5093473;27;45724;-81
2022/06/05 05:57:16;;;;;;;;;3.50;3.00;;;;;19.88;83.95;100800.59;5092442;27;45362;-79
2022/06/05 05:59:42;;;;;;;;;1.50;1.50;;;;;19.51;83.72;100734.00;5093121;27;45435;-80
2022/06/05 06:02:12;;;;;;;;;2.25;2.25;;;;;19.79;83.53;100767.72;5092502;27;45528;-80
2022/06/05 06:04:38;;;;;;;;;3.75;3.50;;;;;19.99;83.83;100796.13;5092564;27;45457;-79
2022/06/05 06:07:04;;;;;;;;;2.75;2.75;;;;;19.79;83.67;100758.84;5092975;27;45438;-78
2022/06/05 06:09:29;;;;;;;;;2.00;2.00;;;;;19.86;83.73;100768.59;5097147;27;46460;-81
2022/06/05 06:11:54;;;;;;;;;3.00;3.00;;;;;19.99;82.89;100786.31;5094923;27;45382;-80
2022/06/05 06:14:20;;;;;;;;;1.25;1.25;;;;;19.86;83.55;100760.59;5113069;27;45286;-79
2022/06/05 06:16:45;;;;;;;;;2.25;2.00;;;;;20.01;83.15;100799.69;5113231;27;45676;-78
2022/06/05 06:19:11;;;;;;;;;0.50;0.50;;;;;19.85;82.51;100772.16;5094559;27;47094;-80
2022/06/05 06:21:36;;;;;;;;;2.00;2.00;;;;;19.87;82.70;100783.72;5113063;27;45641;-80
2022/06/05 06:24:01;;;;;;;;;4.00;3.75;;;;;19.58;83.46;100731.31;5112929;27;45390;-79
2022/06/05 06:26:27;;;;;;;;;2.00;2.00;;;;;19.84;83.19;100789.94;5112802;27;45723;-80
2022/06/05 06:28:52;;;;;;;;;1.00;1.00;;;;;19.68;82.97;100763.31;5112823;27;45243;-79
2022/06/05 06:31:18;;;;;;;;;2.00;2.00;;;;;19.55;83.33;100735.75;5112599;27;46417;-80
2022/06/05 06:33:45;;;;;;;;;3.00;2.00;;;;;19.66;83.59;100755.34;5113394;27;45597;-80
2022/06/05 06:36:13;;;;;;;;;2.00;2.00;;;;;19.84;83.71;100775.72;5112788;27;45621;-80
2022/06/05 06:38:40;;;;;;;;;2.50;2.50;;;;;19.77;83.68;100757.97;5112965;27;46282;-78
2022/06/05 06:41:09;;;;;;;;;1.25;1.00;;;;;19.79;83.87;100748.16;5113306;27;45748;-78
2022/06/05 06:43:35;;;;;;;;;2.75;2.50;;;;;19.72;83.51;100739.31;5112578;27;45461;-77
2022/06/05 06:46:02;;;;;;;;;2.25;2.25;;;;;19.95;83.49;100773.91;5112399;27;45366;-81
2022/06/05 06:48:28;;;;;;;;;2.75;1.50;;;;;19.71;83.41;100728.66;5112458;27;46627;-80
2022/06/05 06:50:56;;;;;;;;;3.00;3.00;;;;;19.94;82.64;100757.91;5111335;27;46188;-80
2022/06/05 06:53:22;;;;;;;;;2.00;2.00;;;;;19.99;82.59;100751.66;5112562;27;45667;-79
2022/06/05 06:55:48;;;;;;;;;1.25;1.25;;;;;20.00;82.44;100737.44;5113408;27;45497;-80
2022/06/05 06:58:13;;;;;;;;;2.25;2.25;;;;;20.09;81.97;100740.03;5112247;27;46225;-78
2022/06/05 07:00:39;;;;;;;;;1.00;1.00;;;;;20.14;81.95;100736.47;5112405;27;45433;-78
2022/06/05 07:03:05;;;;;;;;;3.00;3.00;;;;;20.31;81.13;100751.50;5112416;27;45383;-78
2022/06/05 07:05:31;;;;;;;;;4.00;3.75;;;;;20.25;81.59;100734.66;5111647;27;45658;-81
2022/06/05 07:07:57;;;;;;;;;4.00;4.00;;;;;20.04;81.65;100695.59;5112744;27;46510;-79
2022/06/05 07:10:22;;;;;;;;;3.00;2.50;;;;;20.25;81.03;100729.31;5099961;27;45576;-78
2022/06/05 07:12:48;;;;;;;;;3.50;3.00;;;;;20.31;81.47;100748.84;5091885;27;45654;-78
2022/06/05 07:15:16;;;;;;;;;3.00;3.00;;;;;20.29;80.99;100742.59;5091173;27;45393;-79
2022/06/05 07:17:42;;;;;;;;;4.50;4.50;;;;;20.07;81.00;100709.81;5091576;27;45440;-79
2022/06/05 07:20:08;;;;;;;;;2.25;2.00;;;;;20.14;81.60;100716.00;5091192;27;45564;-80
2022/06/05 07:22:34;;;;;;;;;4.00;3.25;;;;;20.30;81.51;100732.84;5091832;27;45438;-81
2022/06/05 07:25:00;;;;;;;;;3.25;3.25;;;;;20.35;81.49;100739.06;5072995;27;45780;-80
2022/06/05 07:27:26;;;;;;;;;3.00;3.00;;;;;20.29;81.40;100715.03;5090921;27;47085;-80
2022/06/05 07:29:52;;;;;;;;;3.00;3.00;;;;;20.23;82.13;100705.28;5091790;27;45934;-80
2022/06/05 07:32:18;;;;;;;;;2.50;2.50;;;;;20.32;81.32;100704.34;5090894;27;45785;-78
2022/06/05 07:34:44;;;;;;;;;2.00;2.00;;;;;20.34;81.29;100705.22;5091252;27;46212;-80
2022/06/05 07:37:10;;;;;;;;;2.00;2.00;;;;;20.53;81.02;100736.28;5091186;27;46548;-80
2022/06/05 07:39:35;;;;;;;;;3.00;2.50;;;;;20.40;80.52;100705.19;5091387;27;45460;-79
2022/06/05 07:42:01;;;;;;;;;6.00;4.50;;;;;20.44;80.76;100706.03;5091123;27;45414;-81
2022/06/05 07:44:27;;;;;;;;;3.00;3.00;;;;;20.67;80.43;100729.97;5091089;27;45298;-78
2022/06/05 07:46:53;;;;;;;;;5.00;4.00;;;;;20.56;80.33;100696.22;5090698;27;45748;-79
2022/06/05 07:49:18;;;;;;;;;5.00;5.00;;;;;20.93;80.14;100735.09;5090433;27;45892;-80
2022/06/05 07:54:32;;;;;;;;;6.00;5.00;;;;;21.25;79.97;100733.06;5091234;27;45498;-78
2022/06/05 07:57:07;;;;;;;;;4.75;4.00;;;;;21.45;79.57;100737.34;5090852;27;45462;-78
2022/06/05 07:59:36;;;;;;;;;5.00;4.00;;;;;21.61;79.27;100745.19;5090117;27;46158;-79
2022/06/05 08:02:05;;;;;;;;;3.25;3.00;;;;;21.62;79.04;100722.00;5090241;27;45294;-78
2022/06/05 08:04:31;;;;;;;;;2.50;2.50;;;;;21.79;79.37;100725.38;5090306;27;45389;-79
2022/06/05 08:06:59;;;;;;;;;3.25;2.00;;;;;21.88;78.69;100714.56;5090432;27;46521;-78
2022/06/05 08:09:25;;;;;;;;;4.00;2.75;;;;;22.00;77.85;100716.19;5094716;27;45482;-79
2022/06/05 08:11:51;;;;;;;;;2.75;2.75;;;;;22.08;77.72;100703.63;5111731;27;45406;-81
2022/06/05 08:14:16;;;;;;;;;2.25;2.25;;;;;22.11;77.62;100705.38;5111515;27;45513;-79
2022/06/05 08:16:44;;;;;;;;;2.00;2.00;;;;;22.28;76.34;100743.53;5111381;27;46512;-81
2022/06/05 08:19:15;;;;;;;;;2.50;2.50;;;;;22.20;76.79;100744.53;5111115;27;45984;-79
2022/06/05 08:21:41;;;;;;;;;2.00;2.00;;;;;22.05;77.49;100743.78;5111878;27;45473;-81
2022/06/05 08:24:08;;;;;;;;;1.00;1.00;;;;;21.93;76.95;100743.06;5110970;27;45535;-79
2022/06/05 08:26:34;;;;;;;;;1.00;1.00;;;;;21.94;76.77;100756.44;5110473;27;45394;-78
2022/06/05 08:29:00;;;;;;;;;3.25;3.00;;;;;21.87;76.98;100752.94;5092559;27;45951;-80
2022/06/05 08:31:25;;;;;;;;;3.50;3.50;;;;;21.67;77.08;100735.31;5110647;27;45377;-80
2022/06/05 08:33:51;;;;;;;;;2.75;2.75;;;;;21.59;76.73;100743.44;5111335;27;45389;-80
2022/06/05 08:36:17;;;;;;;;;2.50;2.00;;;;;21.59;76.71;100754.16;5092231;27;46191;-78
2022/06/05 08:41:42;;;;;;;;;2.00;2.00;;;;;21.34;77.04;100737.47;5110595;27;45574;-81
2022/06/05 08:44:19;;;;;;;;;2.25;2.25;;;;;21.46;77.01;100773.88;5111105;27;45385;-80
2022/06/05 08:46:56;;;;;;;;;1.25;1.25;;;;;21.43;76.80;100773.91;5110924;27;45648;-80
2022/06/05 08:49:40;;;;;;;;;2.00;1.75;;;;;21.41;76.51;100763.22;5091627;27;45517;-80
2022/06/05 08:52:29;;;;;;;;;2.50;2.50;;;;;21.45;77.26;100770.34;5092211;27;45409;-79
2022/06/05 08:54:58;;;;;;;;;1.25;1.25;;;;;21.33;78.03;100739.25;5091921;27;45389;-79
2022/06/05 08:57:34;;;;;;;;;3.50;3.50;;;;;21.52;77.74;100755.97;5110805;27;46061;-80
2022/06/05 09:00:16;;;;;;;;;2.00;2.00;;;;;21.36;78.35;100738.31;5110774;27;45496;-80
2022/06/05 09:02:51;;;;;;;;;3.00;3.00;;;;;21.54;78.56;100770.25;5110713;27;45507;-79
2022/06/05 09:05:23;;;;;;;;;4.00;4.00;;;;;21.57;77.95;100778.22;5110425;27;45472;-81
2022/06/05 09:07:53;;;;;;;;;7.25;6.50;;;;;21.55;78.21;100785.38;5110924;27;45497;-79
2022/06/05 09:10:51;;;;;;;;;6.50;6.25;;;;;21.38;77.81;100763.28;5079729;27;45957;-79
2022/06/05 09:13:38;;;;;;;;;8.00;8.00;;;;;21.37;78.72;100775.72;5089934;27;45558;-79
2022/06/05 09:16:11;;;;;;;;;7.50;7.50;;;;;21.46;78.25;100811.31;5092774;27;45483;-78
2022/06/05 09:18:39;;;;;;;;;8.50;8.25;;;;;21.34;78.15;100804.31;5093141;27;46616;-78
2022/06/05 09:21:31;;;;;;;;;8.00;7.50;;;;;21.31;78.61;100818.56;5093695;27;46111;-81
2022/06/05 09:24:06;;;;;;;;;7.00;7.00;;;;;21.32;78.34;100835.50;5093917;27;45600;-80
2022/06/05 09:27:05;;;;;;;;;8.75;8.75;;;;;21.31;78.88;100839.06;5074323;27;45665;-79
2022/06/05 09:29:42;;;;;;;;;12.50;11.50;;;;;21.28;78.99;100839.97;5040556;27;45859;-80
2022/06/05 09:32:30;;;;;;;;;9.75;9.25;;;;;21.35;79.01;100841.72;5092416;27;45289;-81
2022/06/05 09:35:12;;;;;;;;;9.75;8.25;;;;;21.49;78.33;100825.56;5085634;27;45523;-79
2022/06/05 09:37:57;;;;;;;;;9.00;9.00;;;;;21.80;78.43;100841.31;5093483;27;45538;-81
2022/06/05 09:40:38;;;;;;;;;9.00;9.00;;;;;21.74;77.46;100793.22;5092575;27;45543;-81
2022/06/05 09:43:03;;;;;;;;;8.50;8.50;;;;;21.98;76.63;100848.28;5093140;27;45421;-80
2022/06/05 09:45:36;;;;;;;;;8.33;8.33;;;;;21.91;76.60;100842.09;5092228;27;45398;-79
2022/06/05 09:48:21;;;;;;;;;8.25;8.25;;;;;21.81;76.29;100848.44;5091971;27;45620;-80
2022/06/05 09:50:46;;;;;;;;;9.00;9.00;;;;;21.57;76.77;100829.03;5092914;27;45663;-80
2022/06/05 09:53:16;;;;;;;;;9.50;9.50;;;;;21.51;76.71;100831.78;5092832;27;45428;-80
2022/06/05 09:55:55;;;;;;;;;11.00;10.00;;;;;21.56;77.01;100843.31;5092722;27;45532;-79
2022/06/05 09:58:27;;;;;;;;;9.75;9.00;;;;;21.79;77.26;100860.97;5074366;27;45757;-81
2022/06/05 10:01:00;;;;;;;;;11.50;11.00;;;;;21.92;77.12;100859.94;5092750;27;46331;-78
2022/06/05 10:03:38;;;;;;;;;14.25;13.50;;;;;21.97;76.67;100857.19;5073792;27;45959;-81
2022/06/05 10:06:14;;;;;;;;;12.00;12.00;;;;;22.04;75.34;100849.09;5092963;27;46027;-80
2022/06/05 10:08:44;;;;;;;;;9.75;9.00;;;;;22.17;75.35;100839.19;5092980;27;45586;-79
2022/06/05 10:11:24;;;;;;;;;13.25;13.25;;;;;22.45;75.81;100869.19;5111094;27;45438;-80
2022/06/05 10:14:16;;;;;;;;;10.75;9.25;;;;;22.25;74.57;100839.06;5094998;27;45429;-78
2022/06/05 10:16:50;;;;;;;;;11.00;11.00;;;;;22.24;74.09;100840.00;5112409;27;45496;-80
2022/06/05 10:19:40;;;;;;;;;12.50;12.50;;;;;22.23;73.93;100827.50;5113000;27;45580;-80
2022/06/05 10:22:15;;;;;;;;;20.50;20.00;;;;;22.40;74.28;100865.66;5113106;27;45669;-80
2022/06/05 10:24:58;;;;;;;;;12.00;11.75;;;;;22.32;73.26;100864.91;5112755;27;45415;-78
2022/06/05 10:27:24;;;;;;;;;11.25;10.00;;;;;22.28;73.62;100871.19;5112850;27;45387;-79
2022/06/05 10:29:55;;;;;;;;;11.50;10.25;;;;;22.20;73.53;100879.28;5113189;27;46387;-79
2022/06/05 10:32:27;;;;;;;;;11.00;10.50;;;;;22.23;73.61;100878.38;5112199;27;46442;-80
2022/06/05 10:35:11;;;;;;;;;11.00;10.75;;;;;22.24;73.59;100870.31;5113608;27;45616;-78
2022/06/05 10:37:58;;;;;;;;;12.75;12.00;;;;;22.33;73.07;100866.66;5094391;27;45848;-79
2022/06/05 10:40:40;;;;;;;;;13.75;13.00;;;;;22.27;73.05;100866.75;5112488;27;45321;-78
2022/06/05 10:43:22;;;;;;;;;14.00;13.50;;;;;22.40;72.97;100861.19;5112807;27;46547;-78
2022/06/05 10:46:08;;;;;;;;;13.50;13.50;;;;;22.65;72.49;100847.50;5112502;27;45821;-79
2022/06/05 10:48:55;;;;;;;;;11.25;11.25;;;;;22.77;72.38;100825.03;5112961;27;45951;-78
2022/06/05 10:51:32;;;;;;;;;13.00;13.00;;;;;23.21;71.72;100842.25;5112567;27;45647;-78
2022/06/05 10:54:23;;;;;;;;;13.75;13.00;;;;;23.62;70.64;100877.34;5112488;27;45862;-78
2022/06/05 10:56:59;;;;;;;;;13.00;12.75;;;;;23.58;69.30;100859.50;5113015;27;46131;-78
2022/06/05 10:59:54;;;;;;;;;11.75;11.50;;;;;23.72;69.22;100869.16;5112601;27;45430;-80
2022/06/05 11:03:00;;;;;;;;;14.00;13.00;;;;;23.60;68.80;100871.13;5111786;27;45493;-77
2022/06/05 11:05:42;;;;;;;;;14.50;13.00;;;;;23.32;68.46;100873.34;5111621;27;45840;-78
2022/06/05 11:08:26;;;;;;;;;14.50;14.25;;;;;23.02;68.99;100847.91;5112020;27;45345;-78
2022/06/05 11:13:55;;;;;;;;;12.00;12.00;;;;;22.86;69.96;100881.16;5091974;27;45375;-78
2022/06/05 11:16:48;;;;;;;;;12.75;12.50;;;;;22.98;69.69;100881.03;5090452;27;45601;-79
2022/06/05 11:19:22;;;;;;;;;15.75;13.50;;;;;22.98;69.39;100854.22;5072806;27;45912;-80
2022/06/05 11:21:50;;;;;;;;;15.50;14.25;;;;;23.13;68.59;100848.63;5092004;27;45394;-79
2022/06/05 11:24:23;;;;;;;;;16.50;15.50;;;;;23.18;68.51;100870.00;5090974;27;45263;-79
2022/06/05 11:27:27;;;;;;;;;14.00;14.00;;;;;23.35;68.42;100888.50;5091730;27;45344;-80
2022/06/05 11:30:06;;;;;;;;;13.00;13.00;;;;;23.41;68.00;100875.00;5072876;27;45817;-79
2022/06/05 11:32:45;;;;;;;;;12.75;12.75;;;;;23.52;67.85;100893.63;5091161;27;45582;-79
2022/06/05 11:35:19;;;;;;;;;14.75;14.50;;;;;23.52;67.87;100901.66;5091423;27;45405;-80
2022/06/05 11:37:55;;;;;;;;;16.00;14.00;;;;;23.17;67.58;100861.06;5090049;27;46053;-79
2022/06/05 11:40:31;;;;;;;;;17.50;16.00;;;;;23.12;67.21;100879.03;5091033;27;45956;-77
2022/06/05 11:43:28;;;;;;;;;16.50;14.75;;;;;23.36;67.45;100890.28;5073071;27;45494;-79
2022/06/05 11:46:11;;;;;;;;;16.00;16.00;;;;;23.62;67.04;100908.66;5083982;27;45598;-78
2022/06/05 11:48:55;;;;;;;;;16.50;15.75;;;;;23.81;66.28;100903.91;5091129;27;46149;-81
2022/06/05 11:51:30;;;;;;;;;14.00;13.00;;;;;23.92;66.70;100886.66;5091105;27;45680;-78
2022/06/05 11:54:24;;;;;;;;;17.00;16.50;;;;;24.01;65.61;100909.78;5072700;27;45470;-81
2022/06/05 11:57:14;;;;;;;;;15.50;14.50;;;;;24.05;65.29;100914.19;5053239;27;45482;-80
2022/06/05 12:00:15;;;;;;;;;13.75;13.75;;;;;24.13;64.63;100909.56;5090651;27;46322;-80